createdAt,value
2022-09-28T00:02:25.645Z,12.76
2022-09-28T00:04:56.498Z,12.76
2022-09-28T00:07:25.617Z,12.72
2022-09-28T00:09:54.702Z,12.69
2022-09-28T00:12:24.286Z,12.65
2022-09-28T00:14:54.031Z,12.64
2022-09-28T00:17:26.185Z,12.64
2022-09-28T00:19:58.400Z,12.61
2022-09-28T00:22:27.503Z,12.58
2022-09-28T00:24:56.784Z,12.59
2022-09-28T00:27:25.977Z,12.61
2022-09-28T00:29:55.924Z,12.59
2022-09-28T00:32:25.118Z,12.54
2022-09-28T00:34:55.997Z,12.55
2022-09-28T00:37:25.071Z,12.55
2022-09-28T00:39:54.989Z,12.54
2022-09-28T00:42:26.179Z,12.51
2022-09-28T00:44:56.116Z,12.51
2022-09-28T00:47:42.986Z,12.51
2022-09-28T00:50:23.657Z,12.50
2022-09-28T00:52:57.700Z,12.49
2022-09-28T00:55:35.716Z,12.48
2022-09-28T00:58:08.718Z,12.45
2022-09-28T01:00:40.626Z,12.46
2022-09-28T01:03:10.244Z,12.46
2022-09-28T01:05:41.897Z,12.45
2022-09-28T01:08:13.371Z,12.43
2022-09-28T01:10:44.068Z,12.42
2022-09-28T01:13:15.790Z,12.39
2022-09-28T01:15:54.800Z,12.33
2022-09-28T01:18:30.275Z,12.30
2022-09-28T01:21:10.680Z,12.30
2022-09-28T01:24:01.078Z,12.23
2022-09-28T01:26:59.982Z,12.21
2022-09-28T01:29:49.300Z,12.21
2022-09-28T01:32:30.382Z,12.23
2022-09-28T01:35:06.609Z,12.23
2022-09-28T01:37:42.680Z,12.22
2022-09-28T01:40:13.382Z,12.21
2022-09-28T01:42:46.011Z,12.21
2022-09-28T01:45:23.171Z,12.17
2022-09-28T01:47:58.299Z,12.13
2022-09-28T01:50:31.454Z,12.15
2022-09-28T01:53:08.506Z,12.14
2022-09-28T01:55:44.133Z,12.14
2022-09-28T01:58:19.816Z,12.15
2022-09-28T02:00:57.147Z,12.14
2022-09-28T02:03:33.051Z,12.16
2022-09-28T02:06:10.391Z,12.17
2022-09-28T02:08:45.457Z,12.17
2022-09-28T02:11:17.399Z,12.16
2022-09-28T02:13:51.500Z,12.19
2022-09-28T02:16:27.436Z,12.19
2022-09-28T02:18:57.100Z,12.20
2022-09-28T02:21:32.859Z,12.22
2022-09-28T02:24:08.000Z,12.24
2022-09-28T02:26:42.728Z,12.26
2022-09-28T02:29:12.834Z,12.27
2022-09-28T02:31:43.429Z,12.26
2022-09-28T02:34:12.716Z,12.27
2022-09-28T02:36:42.090Z,12.26
2022-09-28T02:39:16.783Z,12.25
2022-09-28T02:41:59.991Z,12.23
2022-09-28T02:44:42.222Z,12.23
2022-09-28T02:47:26.157Z,12.23
2022-09-28T02:50:04.351Z,12.22
2022-09-28T02:52:59.684Z,12.22
2022-09-28T02:55:44.411Z,12.20
2022-09-28T02:58:27.723Z,12.21
2022-09-28T03:01:04.402Z,12.20
2022-09-28T03:03:43.613Z,12.19
2022-09-28T03:06:22.165Z,12.19
2022-09-28T03:08:56.744Z,12.17
2022-09-28T03:11:34.498Z,12.18
2022-09-28T03:14:06.271Z,12.19
2022-09-28T03:16:45.331Z,12.16
2022-09-28T03:19:18.313Z,12.14
2022-09-28T03:21:47.473Z,12.16
2022-09-28T03:24:17.535Z,12.16
2022-09-28T03:26:46.630Z,12.19
2022-09-28T03:29:16.358Z,12.18
2022-09-28T03:31:49.187Z,12.15
2022-09-28T03:34:19.782Z,12.12
2022-09-28T03:36:49.335Z,12.12
2022-09-28T03:39:18.618Z,12.15
2022-09-28T03:41:47.828Z,12.13
2022-09-28T03:44:18.768Z,12.14
2022-09-28T03:46:48.692Z,12.16
2022-09-28T03:49:19.449Z,12.17
2022-09-28T03:51:49.505Z,12.18
2022-09-28T03:54:19.088Z,12.17
2022-09-28T03:56:48.245Z,12.17
2022-09-28T03:59:19.356Z,12.15
2022-09-28T04:01:51.476Z,12.16
2022-09-28T04:04:23.683Z,12.15
2022-09-28T04:06:52.826Z,12.16
2022-09-28T04:09:22.333Z,12.15
2022-09-28T04:12:03.277Z,12.08
2022-09-28T04:14:33.845Z,12.15
2022-09-28T04:17:03.305Z,12.13
2022-09-28T04:19:35.388Z,12.13
2022-09-28T04:22:23.375Z,12.16
2022-09-28T04:24:52.520Z,12.14
2022-09-28T04:27:39.385Z,12.16
2022-09-28T04:30:10.036Z,12.16
2022-09-28T04:32:39.670Z,12.19
2022-09-28T04:35:12.996Z,12.22
2022-09-28T04:37:42.548Z,12.21
2022-09-28T04:40:12.142Z,12.20
2022-09-28T04:42:41.336Z,12.19
2022-09-28T04:45:11.890Z,12.20
2022-09-28T04:47:45.133Z,12.19
2022-09-28T04:50:41.993Z,12.17
2022-09-28T04:53:19.828Z,12.14
2022-09-28T04:55:58.454Z,12.12
2022-09-28T04:58:27.861Z,12.11
2022-09-28T05:01:02.305Z,12.10
2022-09-28T05:03:50.166Z,12.03
2022-09-28T05:06:30.950Z,12.01
2022-09-28T05:09:07.361Z,12.03
2022-09-28T05:11:36.667Z,12.01
2022-09-28T05:14:09.364Z,12.02
2022-09-28T05:16:38.705Z,12.03
2022-09-28T05:19:26.524Z,12.03
2022-09-28T05:22:04.415Z,12.01
2022-09-28T05:24:38.640Z,12.03
2022-09-28T05:27:08.061Z,12.03
2022-09-28T05:29:37.281Z,12.04
2022-09-28T05:32:24.904Z,12.05
2022-09-28T05:35:08.181Z,12.07
2022-09-28T05:37:45.194Z,12.05
2022-09-28T05:40:15.030Z,12.03
2022-09-28T05:42:44.388Z,12.02
2022-09-28T05:45:15.146Z,12.03
2022-09-28T05:47:47.262Z,12.03
2022-09-28T05:50:20.291Z,12.02
2022-09-28T05:52:59.809Z,12.01
2022-09-28T05:55:29.829Z,12.00
2022-09-28T05:58:03.628Z,12.01
2022-09-28T06:00:34.310Z,12.01
2022-09-28T06:03:09.211Z,12.01
2022-09-28T06:05:39.977Z,12.00
2022-09-28T06:08:11.675Z,12.01
2022-09-28T06:10:45.424Z,12.03
2022-09-28T06:13:15.788Z,12.01
2022-09-28T06:15:46.349Z,12.03
2022-09-28T06:18:16.610Z,12.02
2022-09-28T06:21:16.477Z,12.00
2022-09-28T06:23:49.708Z,11.98
2022-09-28T06:26:20.577Z,11.98
2022-09-28T06:28:49.896Z,12.00
2022-09-28T06:31:23.720Z,11.98
2022-09-28T06:33:53.817Z,11.99
2022-09-28T06:36:23.356Z,11.94
2022-09-28T06:38:53.958Z,11.93
2022-09-28T06:41:23.310Z,11.90
2022-09-28T06:43:52.456Z,11.93
2022-09-28T06:46:40.242Z,11.92
2022-09-28T06:49:32.449Z,11.91
2022-09-28T06:52:20.205Z,11.92
2022-09-28T06:55:26.425Z,11.87
2022-09-28T06:58:00.184Z,11.86
2022-09-28T07:00:31.191Z,11.85
2022-09-28T07:03:00.646Z,11.86
2022-09-28T07:05:44.235Z,11.86
2022-09-28T07:08:39.931Z,11.83
2022-09-28T07:11:48.820Z,11.81
2022-09-28T07:14:45.846Z,11.80
2022-09-28T07:17:16.536Z,11.81
2022-09-28T07:19:46.102Z,11.79
2022-09-28T07:22:18.880Z,11.79
2022-09-28T07:24:50.765Z,11.80
2022-09-28T07:27:45.812Z,11.79
2022-09-28T07:30:54.412Z,11.74
2022-09-28T07:34:02.731Z,11.74
2022-09-28T07:36:39.219Z,11.76
2022-09-28T07:39:09.103Z,11.77
2022-09-28T07:41:39.757Z,11.77
2022-09-28T07:44:12.447Z,11.78
2022-09-28T07:46:44.622Z,11.75
2022-09-28T07:49:23.999Z,11.73
2022-09-28T07:52:20.594Z,11.77
2022-09-28T07:55:09.276Z,11.79
2022-09-28T07:58:04.765Z,11.80
2022-09-28T08:01:01.053Z,11.78
2022-09-28T08:03:31.743Z,11.81
2022-09-28T08:06:01.654Z,11.84
2022-09-28T08:08:32.273Z,11.86
2022-09-28T08:11:02.749Z,11.86
2022-09-28T08:13:49.369Z,11.85
2022-09-28T08:16:48.537Z,11.80
2022-09-28T08:19:56.006Z,11.81
2022-09-28T08:22:25.160Z,11.85
2022-09-28T08:24:58.087Z,11.83
2022-09-28T08:27:27.177Z,11.80
2022-09-28T08:29:56.423Z,11.74
2022-09-28T08:33:02.278Z,11.79
2022-09-28T08:35:46.870Z,11.75
2022-09-28T08:38:48.104Z,11.71
2022-09-28T08:41:50.923Z,11.74
2022-09-28T08:44:45.018Z,11.68
2022-09-28T08:47:47.893Z,11.69
2022-09-28T08:50:33.282Z,11.71
2022-09-28T08:53:19.414Z,11.74
2022-09-28T08:56:05.052Z,11.71
2022-09-28T08:58:38.946Z,11.70
2022-09-28T09:01:14.161Z,11.69
2022-09-28T09:03:45.724Z,11.73
2022-09-28T09:06:56.063Z,11.77
2022-09-28T09:09:43.720Z,11.78
2022-09-28T09:12:20.100Z,11.74
2022-09-28T09:15:08.648Z,11.72
2022-09-28T09:17:49.266Z,11.74
2022-09-28T09:20:51.902Z,11.79
2022-09-28T09:23:39.262Z,11.80
2022-09-28T09:26:22.413Z,11.79
2022-09-28T09:29:22.985Z,11.78
2022-09-28T09:32:43.510Z,11.78
2022-09-28T09:35:31.487Z,11.85
2022-09-28T09:38:41.371Z,11.80
2022-09-28T09:41:45.556Z,11.68
2022-09-28T09:44:55.375Z,11.64
2022-09-28T09:47:45.333Z,11.54
2022-09-28T09:50:29.954Z,11.64
2022-09-28T09:53:05.624Z,11.72
2022-09-28T09:55:43.421Z,11.68
2022-09-28T09:58:53.629Z,11.71
2022-09-28T10:01:35.845Z,11.66
2022-09-28T10:04:27.298Z,11.69
2022-09-28T10:07:04.788Z,11.72
2022-09-28T10:09:40.737Z,11.71
2022-09-28T10:12:37.329Z,11.72
2022-09-28T10:15:08.780Z,11.77
2022-09-28T10:17:50.444Z,11.79
2022-09-28T10:20:43.518Z,11.74
2022-09-28T10:23:25.897Z,11.78
2022-09-28T10:26:00.687Z,11.77
2022-09-28T10:28:51.876Z,11.83
2022-09-28T10:31:42.573Z,11.88
2022-09-28T10:34:31.517Z,11.85
2022-09-28T10:37:11.615Z,11.86
2022-09-28T10:40:01.103Z,11.87
2022-09-28T10:42:36.231Z,11.93
2022-09-28T10:45:27.418Z,11.93
2022-09-28T10:48:03.611Z,11.86
2022-09-28T10:50:35.633Z,11.88
2022-09-28T10:53:19.239Z,11.85
2022-09-28T10:56:22.839Z,11.88
2022-09-28T10:59:03.622Z,11.88
2022-09-28T11:01:48.229Z,11.89
2022-09-28T11:04:29.030Z,11.85
2022-09-28T11:07:01.113Z,11.72
2022-09-28T11:09:33.231Z,11.78
2022-09-28T11:12:15.387Z,11.85
2022-09-28T11:14:48.831Z,11.82
2022-09-28T11:17:33.848Z,11.94
2022-09-28T11:20:26.800Z,12.01
2022-09-28T11:22:59.020Z,12.05
2022-09-28T11:25:33.459Z,12.21
2022-09-28T11:28:23.767Z,12.25
2022-09-28T11:30:56.142Z,12.40
2022-09-28T11:33:46.947Z,12.61
2022-09-28T11:36:54.991Z,12.86
2022-09-28T11:40:11.699Z,13.12
2022-09-28T11:42:58.621Z,13.17
2022-09-28T11:45:42.404Z,13.30
2022-09-28T11:48:19.047Z,13.23
2022-09-28T11:50:55.252Z,13.30
2022-09-28T11:53:30.386Z,13.49
2022-09-28T11:56:14.707Z,13.52
2022-09-28T11:58:48.184Z,13.64
2022-09-28T12:01:26.317Z,13.87
2022-09-28T12:04:35.188Z,14.01
2022-09-28T12:07:17.577Z,14.09
2022-09-28T12:09:58.468Z,14.20
2022-09-28T12:12:35.636Z,14.25
2022-09-28T12:15:19.126Z,14.17
2022-09-28T12:20:49.133Z,14.04
2022-09-28T12:23:39.644Z,14.02
2022-09-28T12:26:23.779Z,14.02
2022-09-28T12:28:59.085Z,14.06
2022-09-28T12:31:36.316Z,14.05
2022-09-28T12:34:06.326Z,14.36
2022-09-28T12:37:08.014Z,14.60
2022-09-28T12:40:02.175Z,14.50
2022-09-28T12:42:53.007Z,14.18
2022-09-28T12:46:09.895Z,14.16
2022-09-28T12:50:07.274Z,14.04
2022-09-28T12:52:18.986Z,13.98
2022-09-28T12:55:24.925Z,13.92
2022-09-28T12:58:04.374Z,13.88
2022-09-28T13:00:42.331Z,13.84
2022-09-28T13:03:41.202Z,13.84
2022-09-28T13:06:37.933Z,13.83
2022-09-28T13:09:23.888Z,13.82
2022-09-28T13:12:31.820Z,13.76
2022-09-28T13:15:34.353Z,13.77
2022-09-28T13:18:12.137Z,13.75
2022-09-28T13:20:53.265Z,13.78
2022-09-28T13:23:25.390Z,13.79
2022-09-28T13:26:10.428Z,13.76
2022-09-28T13:28:43.693Z,13.75
2022-09-28T13:31:19.086Z,13.70
2022-09-28T13:33:50.397Z,13.70
2022-09-28T13:36:42.497Z,13.64
2022-09-28T13:39:37.544Z,13.64
2022-09-28T13:42:09.861Z,13.61
2022-09-28T13:45:03.131Z,13.60
2022-09-28T13:47:57.623Z,13.62
2022-09-28T13:50:39.084Z,13.62
2022-09-28T13:53:20.246Z,13.58
2022-09-28T13:55:58.483Z,13.55
2022-09-28T13:58:32.839Z,13.55
2022-09-28T14:01:08.657Z,13.52
2022-09-28T14:03:55.786Z,13.52
2022-09-28T14:06:27.643Z,13.51
2022-09-28T14:09:25.078Z,13.50
2022-09-28T14:12:00.014Z,13.51
2022-09-28T14:14:51.078Z,13.47
2022-09-28T14:18:03.136Z,13.47
2022-09-28T14:20:36.162Z,13.42
2022-09-28T14:23:57.584Z,13.46
2022-09-28T14:26:54.434Z,13.43
2022-09-28T14:29:29.376Z,13.39
2022-09-28T14:32:04.742Z,13.40
2022-09-28T14:34:37.806Z,13.37
2022-09-28T14:37:40.257Z,13.36
2022-09-28T14:40:37.519Z,13.32
2022-09-28T14:43:36.253Z,13.29
2022-09-28T14:46:37.462Z,13.28
2022-09-28T14:52:46.649Z,13.21
2022-09-28T14:55:27.809Z,13.18
2022-09-28T15:59:27.283Z,12.93
2022-09-28T16:06:16.474Z,12.84
2022-09-28T16:08:48.889Z,12.81
2022-09-28T16:11:23.931Z,12.78
2022-09-28T16:14:01.794Z,12.78
2022-09-28T16:16:36.462Z,12.76
2022-09-28T16:19:07.955Z,12.73
2022-09-28T16:21:46.955Z,12.69
2022-09-28T16:24:23.625Z,12.67
2022-09-28T16:26:59.220Z,12.66
2022-09-28T16:29:39.154Z,12.64
2022-09-28T16:32:41.788Z,12.61
2022-09-28T16:35:21.131Z,12.54
2022-09-28T16:37:57.849Z,12.49
2022-09-28T16:40:28.045Z,12.49
2022-09-28T16:43:03.161Z,12.46
2022-09-28T16:45:35.187Z,12.43
2022-09-28T16:48:06.475Z,12.42
2022-09-28T16:50:35.970Z,12.38
2022-09-28T16:53:31.541Z,12.34
2022-09-28T16:56:01.981Z,12.29
2022-09-28T16:58:32.041Z,12.24
2022-09-28T17:01:02.015Z,12.20
2022-09-28T17:03:32.840Z,12.14
2022-09-28T17:06:03.730Z,12.09
2022-09-28T17:08:33.766Z,12.03
2022-09-28T17:11:24.015Z,11.99
2022-09-28T17:13:56.711Z,11.95
2022-09-28T17:19:24.404Z,11.79
2022-09-28T17:21:54.264Z,11.73
2022-09-28T17:24:23.725Z,11.71
2022-09-28T17:26:54.807Z,11.66
2022-09-28T17:29:24.236Z,11.59
2022-09-28T17:31:54.440Z,11.53
2022-09-28T17:34:24.741Z,11.40
2022-09-28T17:36:54.790Z,11.33
2022-09-28T17:39:25.128Z,11.24
2022-09-28T17:41:54.544Z,11.17
2022-09-28T17:44:23.749Z,11.12
2022-09-28T17:46:53.944Z,11.06
2022-09-28T17:49:24.959Z,11.00
2022-09-28T17:51:54.243Z,10.94
2022-09-28T17:54:23.510Z,10.86
2022-09-28T17:56:53.242Z,10.79
2022-09-28T17:59:22.420Z,10.74
2022-09-28T18:01:51.685Z,10.69
2022-09-28T18:04:47.207Z,10.64
2022-09-28T18:07:11.933Z,10.61
2022-09-28T18:09:41.251Z,10.60
2022-09-28T18:12:10.368Z,10.56
2022-09-28T18:14:40.109Z,10.55
2022-09-28T18:17:09.457Z,10.53
2022-09-28T18:19:38.557Z,10.49
2022-09-28T18:22:07.643Z,10.45
2022-09-28T18:24:38.319Z,10.40
2022-09-28T18:27:07.425Z,10.38
2022-09-28T18:29:36.573Z,10.34
2022-09-28T18:32:06.211Z,10.31
2022-09-28T18:34:38.042Z,10.26
2022-09-28T18:37:07.583Z,10.24
2022-09-28T18:39:38.630Z,10.22
2022-09-28T18:42:08.133Z,10.21
2022-09-28T18:44:37.747Z,10.21
2022-09-28T18:47:07.182Z,10.20
2022-09-28T18:49:37.992Z,10.20
2022-09-28T18:52:08.685Z,10.17
2022-09-28T18:54:40.504Z,10.14
2022-09-28T18:57:10.164Z,10.15
2022-09-28T18:59:39.640Z,10.15
2022-09-28T19:02:11.578Z,10.13
2022-09-28T19:04:41.481Z,10.13
2022-09-28T19:07:10.832Z,10.13
2022-09-28T19:09:44.035Z,10.09
2022-09-28T19:12:14.018Z,10.02
2022-09-28T19:14:43.299Z,9.92
2022-09-28T19:17:12.947Z,9.83
2022-09-28T19:19:42.731Z,9.66
2022-09-28T19:22:12.978Z,9.68
2022-09-28T19:24:43.736Z,9.65
2022-09-28T19:27:13.074Z,9.66
2022-09-28T19:29:42.274Z,9.70
2022-09-28T19:32:12.659Z,9.69
2022-09-28T19:34:42.124Z,9.72
2022-09-28T19:37:11.316Z,9.73
2022-09-28T19:39:42.022Z,9.73
2022-09-28T19:42:11.457Z,9.75
2022-09-28T19:44:41.665Z,9.77
2022-09-28T19:47:13.023Z,9.79
2022-09-28T19:49:43.089Z,9.74
2022-09-28T19:52:16.925Z,9.76
2022-09-28T19:54:56.681Z,9.71
2022-09-28T19:57:27.845Z,9.73
2022-09-28T20:00:05.683Z,9.69
2022-09-28T20:02:36.125Z,9.68
2022-09-28T20:05:05.702Z,9.63
2022-09-28T20:07:36.167Z,9.66
2022-09-28T20:10:07.871Z,9.67
2022-09-28T20:12:37.153Z,9.68
2022-09-28T20:15:10.645Z,9.71
2022-09-28T20:17:39.859Z,9.64
2022-09-28T20:20:09.979Z,9.61
2022-09-28T20:22:40.140Z,9.59
2022-09-28T20:25:11.126Z,9.62
2022-09-28T20:27:40.554Z,9.61
2022-09-28T20:30:11.911Z,9.61
2022-09-28T20:32:41.720Z,9.63
2022-09-28T20:35:11.367Z,9.63
2022-09-28T20:37:40.508Z,9.63
2022-09-28T20:40:12.065Z,9.61
2022-09-28T20:42:42.483Z,9.64
2022-09-28T20:45:12.178Z,9.66
2022-09-28T20:47:41.575Z,9.68
2022-09-28T20:50:11.479Z,9.72
2022-09-28T20:52:40.893Z,9.73
2022-09-28T20:55:11.948Z,9.73
2022-09-28T20:57:41.344Z,9.71
2022-09-28T21:00:12.016Z,9.72
2022-09-28T21:02:41.442Z,9.75
2022-09-28T21:05:11.110Z,9.77
2022-09-28T21:07:40.374Z,9.75
2022-09-28T21:10:11.907Z,9.78
2022-09-28T21:12:41.978Z,9.77
2022-09-28T21:15:12.058Z,9.80
2022-09-28T21:17:41.337Z,9.78
2022-09-28T21:20:11.290Z,9.77
2022-09-28T21:22:40.777Z,9.80
2022-09-28T21:25:11.821Z,9.82
2022-09-28T21:27:41.526Z,9.72
2022-09-28T21:30:11.757Z,9.68
2022-09-28T21:32:41.184Z,9.64
2022-09-28T21:35:11.179Z,9.68
2022-09-28T21:37:40.628Z,9.67
2022-09-28T21:40:11.972Z,9.67
2022-09-28T21:42:41.530Z,9.66
2022-09-28T21:45:11.266Z,9.67
2022-09-28T21:47:43.573Z,9.69
2022-09-28T21:50:15.217Z,9.66
2022-09-28T21:52:44.366Z,9.66
2022-09-28T21:55:15.215Z,9.65
2022-09-28T21:57:46.372Z,9.62
2022-09-28T22:00:16.431Z,9.59
2022-09-28T22:02:46.133Z,9.58
2022-09-28T22:05:15.856Z,9.58
2022-09-28T22:07:45.215Z,9.59
2022-09-28T22:10:16.607Z,9.59
2022-09-28T22:12:45.930Z,9.61
2022-09-28T22:15:15.433Z,9.58
2022-09-28T22:17:44.719Z,9.57
2022-09-28T22:20:13.885Z,9.56
2022-09-28T22:22:43.282Z,9.54
2022-09-28T22:25:12.513Z,9.52
2022-09-28T22:27:43.252Z,9.50
2022-09-28T22:30:13.662Z,9.47
2022-09-28T22:32:42.574Z,9.46
2022-09-28T22:35:11.919Z,9.46
2022-09-28T22:37:41.319Z,9.49
2022-09-28T22:40:12.706Z,9.52
2022-09-28T22:42:43.478Z,9.51
2022-09-28T22:45:13.006Z,9.51
2022-09-28T22:47:42.704Z,9.56
2022-09-28T22:50:12.083Z,9.59
2022-09-28T22:52:41.515Z,9.60
2022-09-28T22:55:12.828Z,9.62
2022-09-28T22:57:43.597Z,9.62
2022-09-28T23:00:13.649Z,9.62
2022-09-28T23:02:42.846Z,9.62
2022-09-28T23:05:12.227Z,9.64
2022-09-28T23:07:41.411Z,9.62
2022-09-28T23:10:11.222Z,9.60
2022-09-28T23:12:42.326Z,9.61
2022-09-28T23:15:13.693Z,9.61
2022-09-28T23:17:43.022Z,9.55
2022-09-28T23:20:12.227Z,9.54
2022-09-28T23:22:41.396Z,9.53
2022-09-28T23:25:10.963Z,9.51
2022-09-28T23:27:40.263Z,9.51
2022-09-28T23:30:12.167Z,9.54
2022-09-28T23:32:41.605Z,9.55
2022-09-28T23:35:11.077Z,9.56
2022-09-28T23:37:40.323Z,9.55
2022-09-28T23:40:10.271Z,9.55
2022-09-28T23:42:39.393Z,9.56
2022-09-28T23:45:11.160Z,9.55
2022-09-28T23:47:40.548Z,9.54
2022-09-28T23:50:10.542Z,9.53
2022-09-28T23:52:39.683Z,9.53
2022-09-28T23:55:09.825Z,9.54
2022-09-28T23:57:43.877Z,9.49
